sensor_id;sensor_type;location;lat;lon;timestamp;P1;durP1;ratioP1;P2;durP2;ratioP2
46158;SDS011;31888;44.512;26.104;2023-05-20T00:02:16;13.80;;;9.80;;
46158;SDS011;31888;44.512;26.104;2023-05-20T00:04:42;15.63;;;9.27;;
46158;SDS011;31888;44.512;26.104;2023-05-20T00:07:06;15.55;;;9.13;;
46158;SDS011;31888;44.512;26.104;2023-05-20T00:09:31;11.75;;;9.10;;
46158;SDS011;31888;44.512;26.104;2023-05-20T00:11:56;12.40;;;8.73;;
46158;SDS011;31888;44.512;26.104;2023-05-20T00:14:21;14.73;;;10.23;;
46158;SDS011;31888;44.512;26.104;2023-05-20T00:16:46;14.48;;;9.88;;
46158;SDS011;31888;44.512;26.104;2023-05-20T00:19:11;14.93;;;10.13;;
46158;SDS011;31888;44.512;26.104;2023-05-20T00:21:37;19.30;;;10.00;;
46158;SDS011;31888;44.512;26.104;2023-05-20T00:24:02;15.02;;;10.18;;
46158;SDS011;31888;44.512;26.104;2023-05-20T00:26:27;14.13;;;10.15;;
46158;SDS011;31888;44.512;26.104;2023-05-20T00:28:53;12.70;;;9.55;;
46158;SDS011;31888;44.512;26.104;2023-05-20T00:31:18;12.35;;;9.35;;
46158;SDS011;31888;44.512;26.104;2023-05-20T00:33:43;14.05;;;9.73;;
46158;SDS011;31888;44.512;26.104;2023-05-20T00:36:08;14.85;;;10.07;;
46158;SDS011;31888;44.512;26.104;2023-05-20T00:38:34;17.58;;;9.95;;
46158;SDS011;31888;44.512;26.104;2023-05-20T00:40:59;14.27;;;8.98;;
46158;SDS011;31888;44.512;26.104;2023-05-20T00:43:24;13.82;;;9.20;;
46158;SDS011;31888;44.512;26.104;2023-05-20T00:45:49;13.70;;;9.73;;
46158;SDS011;31888;44.512;26.104;2023-05-20T00:48:14;11.70;;;8.93;;
46158;SDS011;31888;44.512;26.104;2023-05-20T00:50:40;11.95;;;8.57;;
46158;SDS011;31888;44.512;26.104;2023-05-20T00:53:04;17.02;;;9.45;;
46158;SDS011;31888;44.512;26.104;2023-05-20T00:55:31;14.85;;;9.95;;
46158;SDS011;31888;44.512;26.104;2023-05-20T00:57:58;12.55;;;9.23;;
46158;SDS011;31888;44.512;26.104;2023-05-20T01:00:23;13.35;;;10.10;;
46158;SDS011;31888;44.512;26.104;2023-05-20T01:02:48;13.35;;;9.60;;
46158;SDS011;31888;44.512;26.104;2023-05-20T01:05:13;15.05;;;10.30;;
46158;SDS011;31888;44.512;26.104;2023-05-20T01:07:38;13.70;;;9.45;;
46158;SDS011;31888;44.512;26.104;2023-05-20T01:10:03;17.08;;;10.35;;
46158;SDS011;31888;44.512;26.104;2023-05-20T01:12:33;11.55;;;9.68;;
46158;SDS011;31888;44.512;26.104;2023-05-20T01:15:00;14.48;;;9.98;;
46158;SDS011;31888;44.512;26.104;2023-05-20T01:17:29;14.80;;;9.68;;
46158;SDS011;31888;44.512;26.104;2023-05-20T01:19:59;16.60;;;11.35;;
46158;SDS011;31888;44.512;26.104;2023-05-20T01:22:27;13.00;;;9.40;;
46158;SDS011;31888;44.512;26.104;2023-05-20T01:24:52;13.95;;;9.70;;
46158;SDS011;31888;44.512;26.104;2023-05-20T01:27:21;18.23;;;9.75;;
46158;SDS011;31888;44.512;26.104;2023-05-20T01:29:47;13.75;;;10.05;;
46158;SDS011;31888;44.512;26.104;2023-05-20T01:32:16;14.40;;;9.93;;
46158;SDS011;31888;44.512;26.104;2023-05-20T01:34:44;11.93;;;10.02;;
46158;SDS011;31888;44.512;26.104;2023-05-20T01:37:10;15.18;;;10.18;;
46158;SDS011;31888;44.512;26.104;2023-05-20T01:39:38;14.40;;;10.18;;
46158;SDS011;31888;44.512;26.104;2023-05-20T01:42:06;13.75;;;9.73;;
46158;SDS011;31888;44.512;26.104;2023-05-20T01:44:31;14.20;;;9.77;;
46158;SDS011;31888;44.512;26.104;2023-05-20T01:46:57;13.02;;;9.82;;
46158;SDS011;31888;44.512;26.104;2023-05-20T01:49:23;13.02;;;9.35;;
46158;SDS011;31888;44.512;26.104;2023-05-20T01:51:48;13.18;;;10.27;;
46158;SDS011;31888;44.512;26.104;2023-05-20T01:54:13;12.90;;;10.00;;
46158;SDS011;31888;44.512;26.104;2023-05-20T01:56:39;14.73;;;10.32;;
46158;SDS011;31888;44.512;26.104;2023-05-20T01:59:04;14.60;;;10.80;;
46158;SDS011;31888;44.512;26.104;2023-05-20T02:01:29;15.18;;;9.70;;
46158;SDS011;31888;44.512;26.104;2023-05-20T02:03:53;14.55;;;9.75;;
46158;SDS011;31888;44.512;26.104;2023-05-20T02:06:18;13.80;;;10.23;;
46158;SDS011;31888;44.512;26.104;2023-05-20T02:08:45;13.45;;;10.45;;
46158;SDS011;31888;44.512;26.104;2023-05-20T02:11:09;16.52;;;10.35;;
46158;SDS011;31888;44.512;26.104;2023-05-20T02:13:35;13.77;;;10.45;;
46158;SDS011;31888;44.512;26.104;2023-05-20T02:16:00;14.95;;;10.20;;
46158;SDS011;31888;44.512;26.104;2023-05-20T02:18:26;12.90;;;10.10;;
46158;SDS011;31888;44.512;26.104;2023-05-20T02:20:51;15.50;;;10.73;;
46158;SDS011;31888;44.512;26.104;2023-05-20T02:23:18;15.60;;;10.75;;
46158;SDS011;31888;44.512;26.104;2023-05-20T02:25:43;17.88;;;10.40;;
46158;SDS011;31888;44.512;26.104;2023-05-20T02:28:08;17.40;;;11.27;;
46158;SDS011;31888;44.512;26.104;2023-05-20T02:30:34;15.13;;;10.55;;
46158;SDS011;31888;44.512;26.104;2023-05-20T02:33:00;17.35;;;10.55;;
46158;SDS011;31888;44.512;26.104;2023-05-20T02:35:24;14.73;;;10.25;;
46158;SDS011;31888;44.512;26.104;2023-05-20T02:37:49;14.77;;;10.40;;
46158;SDS011;31888;44.512;26.104;2023-05-20T02:40:14;14.63;;;10.27;;
46158;SDS011;31888;44.512;26.104;2023-05-20T02:42:39;13.98;;;10.05;;
46158;SDS011;31888;44.512;26.104;2023-05-20T02:45:04;16.88;;;10.50;;
46158;SDS011;31888;44.512;26.104;2023-05-20T02:47:32;16.17;;;10.90;;
46158;SDS011;31888;44.512;26.104;2023-05-20T02:50:00;15.35;;;9.77;;
46158;SDS011;31888;44.512;26.104;2023-05-20T02:52:26;13.82;;;10.52;;
46158;SDS011;31888;44.512;26.104;2023-05-20T02:54:51;15.10;;;10.77;;
46158;SDS011;31888;44.512;26.104;2023-05-20T02:57:15;15.15;;;9.85;;
46158;SDS011;31888;44.512;26.104;2023-05-20T02:59:41;14.82;;;10.38;;
46158;SDS011;31888;44.512;26.104;2023-05-20T03:02:06;19.40;;;11.60;;
46158;SDS011;31888;44.512;26.104;2023-05-20T03:04:32;16.95;;;10.63;;
46158;SDS011;31888;44.512;26.104;2023-05-20T03:07:00;16.63;;;11.73;;
46158;SDS011;31888;44.512;26.104;2023-05-20T03:09:25;14.65;;;10.88;;
46158;SDS011;31888;44.512;26.104;2023-05-20T03:11:50;16.42;;;11.02;;
46158;SDS011;31888;44.512;26.104;2023-05-20T03:14:15;15.73;;;10.88;;
46158;SDS011;31888;44.512;26.104;2023-05-20T03:16:40;21.15;;;12.13;;
46158;SDS011;31888;44.512;26.104;2023-05-20T03:19:05;14.75;;;10.35;;
46158;SDS011;31888;44.512;26.104;2023-05-20T03:21:32;16.40;;;10.25;;
46158;SDS011;31888;44.512;26.104;2023-05-20T03:23:57;14.60;;;10.65;;
46158;SDS011;31888;44.512;26.104;2023-05-20T03:26:21;16.25;;;10.98;;
46158;SDS011;31888;44.512;26.104;2023-05-20T03:28:47;13.95;;;10.30;;
46158;SDS011;31888;44.512;26.104;2023-05-20T03:31:12;15.85;;;10.90;;
46158;SDS011;31888;44.512;26.104;2023-05-20T03:33:38;13.68;;;10.25;;
46158;SDS011;31888;44.512;26.104;2023-05-20T03:36:03;16.55;;;10.88;;
46158;SDS011;31888;44.512;26.104;2023-05-20T03:38:31;14.00;;;9.88;;
46158;SDS011;31888;44.512;26.104;2023-05-20T03:40:56;17.65;;;10.43;;
46158;SDS011;31888;44.512;26.104;2023-05-20T03:43:21;13.18;;;10.43;;
46158;SDS011;31888;44.512;26.104;2023-05-20T03:45:47;15.07;;;9.85;;
46158;SDS011;31888;44.512;26.104;2023-05-20T03:48:12;14.27;;;10.77;;
46158;SDS011;31888;44.512;26.104;2023-05-20T03:50:38;13.27;;;10.13;;
46158;SDS011;31888;44.512;26.104;2023-05-20T03:53:03;12.40;;;9.48;;
46158;SDS011;31888;44.512;26.104;2023-05-20T03:55:37;15.48;;;10.55;;
46158;SDS011;31888;44.512;26.104;2023-05-20T03:58:03;14.60;;;10.65;;
46158;SDS011;31888;44.512;26.104;2023-05-20T04:00:28;16.35;;;10.43;;
46158;SDS011;31888;44.512;26.104;2023-05-20T04:02:54;16.02;;;10.13;;
46158;SDS011;31888;44.512;26.104;2023-05-20T04:05:19;15.68;;;11.15;;
46158;SDS011;31888;44.512;26.104;2023-05-20T04:07:44;17.77;;;11.68;;
46158;SDS011;31888;44.512;26.104;2023-05-20T04:10:09;14.82;;;11.23;;
46158;SDS011;31888;44.512;26.104;2023-05-20T04:12:36;15.27;;;10.68;;
46158;SDS011;31888;44.512;26.104;2023-05-20T04:15:02;16.52;;;11.45;;
46158;SDS011;31888;44.512;26.104;2023-05-20T04:17:35;17.85;;;11.27;;
46158;SDS011;31888;44.512;26.104;2023-05-20T04:20:02;17.33;;;10.85;;
46158;SDS011;31888;44.512;26.104;2023-05-20T04:22:31;16.58;;;11.55;;
46158;SDS011;31888;44.512;26.104;2023-05-20T04:24:56;17.63;;;11.38;;
46158;SDS011;31888;44.512;26.104;2023-05-20T04:27:20;15.90;;;11.43;;
46158;SDS011;31888;44.512;26.104;2023-05-20T04:29:47;17.85;;;12.18;;
46158;SDS011;31888;44.512;26.104;2023-05-20T04:32:12;17.55;;;11.35;;
46158;SDS011;31888;44.512;26.104;2023-05-20T04:34:40;17.88;;;11.77;;
46158;SDS011;31888;44.512;26.104;2023-05-20T04:37:08;17.60;;;11.75;;
46158;SDS011;31888;44.512;26.104;2023-05-20T04:39:32;18.95;;;12.95;;
46158;SDS011;31888;44.512;26.104;2023-05-20T04:41:58;15.65;;;11.73;;
46158;SDS011;31888;44.512;26.104;2023-05-20T04:44:24;16.73;;;12.45;;
46158;SDS011;31888;44.512;26.104;2023-05-20T04:46:51;17.95;;;12.77;;
46158;SDS011;31888;44.512;26.104;2023-05-20T04:49:16;24.58;;;16.05;;
46158;SDS011;31888;44.512;26.104;2023-05-20T04:51:41;15.82;;;11.90;;
46158;SDS011;31888;44.512;26.104;2023-05-20T04:54:06;18.83;;;12.13;;
46158;SDS011;31888;44.512;26.104;2023-05-20T04:56:32;18.73;;;12.57;;
46158;SDS011;31888;44.512;26.104;2023-05-20T04:58:58;17.73;;;12.10;;
46158;SDS011;31888;44.512;26.104;2023-05-20T05:01:23;19.55;;;12.32;;
46158;SDS011;31888;44.512;26.104;2023-05-20T05:03:50;16.20;;;11.95;;
46158;SDS011;31888;44.512;26.104;2023-05-20T05:06:16;17.77;;;12.18;;
46158;SDS011;31888;44.512;26.104;2023-05-20T05:08:44;19.17;;;12.98;;
46158;SDS011;31888;44.512;26.104;2023-05-20T05:11:08;17.60;;;11.90;;
46158;SDS011;31888;44.512;26.104;2023-05-20T05:13:34;18.80;;;13.23;;
46158;SDS011;31888;44.512;26.104;2023-05-20T05:15:59;16.40;;;12.10;;
46158;SDS011;31888;44.512;26.104;2023-05-20T05:18:27;30.00;;;14.07;;
46158;SDS011;31888;44.512;26.104;2023-05-20T05:20:59;20.65;;;12.18;;
46158;SDS011;31888;44.512;26.104;2023-05-20T05:23:26;16.90;;;11.77;;
46158;SDS011;31888;44.512;26.104;2023-05-20T05:25:51;20.13;;;12.15;;
46158;SDS011;31888;44.512;26.104;2023-05-20T05:28:16;15.85;;;10.95;;
46158;SDS011;31888;44.512;26.104;2023-05-20T05:30:41;30.02;;;12.43;;
46158;SDS011;31888;44.512;26.104;2023-05-20T05:33:06;21.70;;;11.25;;
46158;SDS011;31888;44.512;26.104;2023-05-20T05:35:31;18.48;;;12.20;;
46158;SDS011;31888;44.512;26.104;2023-05-20T05:37:57;18.27;;;11.73;;
46158;SDS011;31888;44.512;26.104;2023-05-20T05:40:25;24.10;;;12.20;;
46158;SDS011;31888;44.512;26.104;2023-05-20T05:42:50;22.23;;;12.30;;
46158;SDS011;31888;44.512;26.104;2023-05-20T05:45:16;26.67;;;11.57;;
46158;SDS011;31888;44.512;26.104;2023-05-20T05:47:41;22.20;;;11.80;;
46158;SDS011;31888;44.512;26.104;2023-05-20T05:50:07;18.33;;;12.52;;
46158;SDS011;31888;44.512;26.104;2023-05-20T05:52:33;20.65;;;12.68;;
46158;SDS011;31888;44.512;26.104;2023-05-20T05:55:02;19.27;;;12.40;;
46158;SDS011;31888;44.512;26.104;2023-05-20T05:57:27;20.88;;;12.45;;
46158;SDS011;31888;44.512;26.104;2023-05-20T05:59:52;18.52;;;11.73;;
46158;SDS011;31888;44.512;26.104;2023-05-20T06:02:18;20.08;;;13.55;;
46158;SDS011;31888;44.512;26.104;2023-05-20T06:04:44;18.60;;;12.45;;
46158;SDS011;31888;44.512;26.104;2023-05-20T06:07:11;23.00;;;14.00;;
46158;SDS011;31888;44.512;26.104;2023-05-20T06:09:36;24.05;;;12.90;;
46158;SDS011;31888;44.512;26.104;2023-05-20T06:12:03;18.25;;;12.93;;
46158;SDS011;31888;44.512;26.104;2023-05-20T06:14:28;24.88;;;13.90;;
46158;SDS011;31888;44.512;26.104;2023-05-20T06:16:54;22.83;;;13.18;;
46158;SDS011;31888;44.512;26.104;2023-05-20T06:19:19;18.55;;;13.02;;
46158;SDS011;31888;44.512;26.104;2023-05-20T06:21:44;21.77;;;13.05;;
46158;SDS011;31888;44.512;26.104;2023-05-20T06:24:09;20.20;;;12.75;;
46158;SDS011;31888;44.512;26.104;2023-05-20T06:26:35;25.58;;;14.10;;
46158;SDS011;31888;44.512;26.104;2023-05-20T06:29:02;20.42;;;13.48;;
46158;SDS011;31888;44.512;26.104;2023-05-20T06:31:27;19.70;;;13.20;;
46158;SDS011;31888;44.512;26.104;2023-05-20T06:33:53;20.75;;;12.25;;
46158;SDS011;31888;44.512;26.104;2023-05-20T06:36:19;23.48;;;13.05;;
46158;SDS011;31888;44.512;26.104;2023-05-20T06:38:44;22.48;;;12.27;;
46158;SDS011;31888;44.512;26.104;2023-05-20T06:41:10;20.45;;;12.45;;
46158;SDS011;31888;44.512;26.104;2023-05-20T06:43:35;20.80;;;14.13;;
46158;SDS011;31888;44.512;26.104;2023-05-20T06:46:25;20.67;;;12.98;;
46158;SDS011;31888;44.512;26.104;2023-05-20T06:48:56;17.45;;;12.07;;
46158;SDS011;31888;44.512;26.104;2023-05-20T06:51:21;19.23;;;12.63;;
46158;SDS011;31888;44.512;26.104;2023-05-20T06:53:46;19.48;;;12.32;;
46158;SDS011;31888;44.512;26.104;2023-05-20T06:56:11;19.70;;;11.85;;
46158;SDS011;31888;44.512;26.104;2023-05-20T06:58:35;20.17;;;12.43;;
46158;SDS011;31888;44.512;26.104;2023-05-20T07:01:01;18.75;;;11.73;;
46158;SDS011;31888;44.512;26.104;2023-05-20T07:03:28;19.25;;;13.10;;
46158;SDS011;31888;44.512;26.104;2023-05-20T07:05:53;21.02;;;12.75;;
46158;SDS011;31888;44.512;26.104;2023-05-20T07:08:19;19.88;;;12.73;;
46158;SDS011;31888;44.512;26.104;2023-05-20T07:10:46;22.05;;;12.45;;
46158;SDS011;31888;44.512;26.104;2023-05-20T07:13:16;22.83;;;12.32;;
46158;SDS011;31888;44.512;26.104;2023-05-20T07:15:41;25.00;;;13.18;;
46158;SDS011;31888;44.512;26.104;2023-05-20T07:18:10;19.20;;;12.10;;
46158;SDS011;31888;44.512;26.104;2023-05-20T07:20:38;24.27;;;12.77;;
46158;SDS011;31888;44.512;26.104;2023-05-20T07:23:11;20.50;;;12.73;;
46158;SDS011;31888;44.512;26.104;2023-05-20T07:25:42;24.58;;;12.93;;
46158;SDS011;31888;44.512;26.104;2023-05-20T07:28:07;18.02;;;12.05;;
46158;SDS011;31888;44.512;26.104;2023-05-20T07:30:32;25.45;;;12.82;;
46158;SDS011;31888;44.512;26.104;2023-05-20T07:33:14;20.00;;;11.98;;
46158;SDS011;31888;44.512;26.104;2023-05-20T07:35:41;19.85;;;12.50;;
46158;SDS011;31888;44.512;26.104;2023-05-20T07:38:06;25.08;;;13.25;;
46158;SDS011;31888;44.512;26.104;2023-05-20T07:40:31;22.52;;;13.23;;
46158;SDS011;31888;44.512;26.104;2023-05-20T07:42:58;22.85;;;12.20;;
46158;SDS011;31888;44.512;26.104;2023-05-20T07:45:23;23.90;;;12.18;;
46158;SDS011;31888;44.512;26.104;2023-05-20T07:47:48;16.83;;;12.18;;
46158;SDS011;31888;44.512;26.104;2023-05-20T07:50:13;18.15;;;12.55;;
46158;SDS011;31888;44.512;26.104;2023-05-20T07:52:40;18.52;;;12.00;;
46158;SDS011;31888;44.512;26.104;2023-05-20T07:55:20;22.92;;;12.43;;
46158;SDS011;31888;44.512;26.104;2023-05-20T07:57:49;16.05;;;12.15;;
46158;SDS011;31888;44.512;26.104;2023-05-20T08:00:15;18.80;;;12.80;;
46158;SDS011;31888;44.512;26.104;2023-05-20T08:02:39;17.92;;;12.13;;
46158;SDS011;31888;44.512;26.104;2023-05-20T08:05:08;19.30;;;12.45;;
46158;SDS011;31888;44.512;26.104;2023-05-20T08:07:33;19.13;;;12.05;;
46158;SDS011;31888;44.512;26.104;2023-05-20T08:09:59;21.38;;;12.50;;
46158;SDS011;31888;44.512;26.104;2023-05-20T08:12:26;16.30;;;12.02;;
46158;SDS011;31888;44.512;26.104;2023-05-20T08:14:52;19.73;;;11.85;;
46158;SDS011;31888;44.512;26.104;2023-05-20T08:17:17;24.70;;;11.80;;
46158;SDS011;31888;44.512;26.104;2023-05-20T08:19:42;21.75;;;12.88;;
46158;SDS011;31888;44.512;26.104;2023-05-20T08:22:09;16.88;;;10.82;;
46158;SDS011;31888;44.512;26.104;2023-05-20T08:24:35;18.10;;;11.55;;
46158;SDS011;31888;44.512;26.104;2023-05-20T08:27:01;16.98;;;11.52;;
46158;SDS011;31888;44.512;26.104;2023-05-20T08:29:27;22.27;;;11.57;;
46158;SDS011;31888;44.512;26.104;2023-05-20T08:31:53;18.30;;;11.43;;
46158;SDS011;31888;44.512;26.104;2023-05-20T08:34:20;15.52;;;10.40;;
46158;SDS011;31888;44.512;26.104;2023-05-20T08:36:45;20.58;;;11.25;;
46158;SDS011;31888;44.512;26.104;2023-05-20T08:39:10;22.52;;;11.27;;
46158;SDS011;31888;44.512;26.104;2023-05-20T08:41:35;22.00;;;11.25;;
46158;SDS011;31888;44.512;26.104;2023-05-20T08:44:03;18.40;;;10.55;;
46158;SDS011;31888;44.512;26.104;2023-05-20T08:46:30;18.83;;;10.55;;
46158;SDS011;31888;44.512;26.104;2023-05-20T08:48:57;21.98;;;10.98;;
46158;SDS011;31888;44.512;26.104;2023-05-20T08:51:22;15.70;;;10.90;;
46158;SDS011;31888;44.512;26.104;2023-05-20T08:53:49;16.08;;;10.35;;
46158;SDS011;31888;44.512;26.104;2023-05-20T08:56:14;18.40;;;11.60;;
46158;SDS011;31888;44.512;26.104;2023-05-20T08:58:39;17.50;;;10.40;;
46158;SDS011;31888;44.512;26.104;2023-05-20T09:01:06;17.00;;;10.82;;
46158;SDS011;31888;44.512;26.104;2023-05-20T09:03:31;13.80;;;10.15;;
46158;SDS011;31888;44.512;26.104;2023-05-20T09:06:02;16.42;;;10.32;;
46158;SDS011;31888;44.512;26.104;2023-05-20T09:08:27;14.63;;;10.35;;
46158;SDS011;31888;44.512;26.104;2023-05-20T09:10:53;18.45;;;10.77;;
46158;SDS011;31888;44.512;26.104;2023-05-20T09:13:18;14.30;;;9.52;;
46158;SDS011;31888;44.512;26.104;2023-05-20T09:15:45;19.27;;;10.65;;
46158;SDS011;31888;44.512;26.104;2023-05-20T09:18:11;14.07;;;10.50;;
46158;SDS011;31888;44.512;26.104;2023-05-20T09:20:36;17.02;;;10.18;;
46158;SDS011;31888;44.512;26.104;2023-05-20T09:23:03;22.75;;;9.90;;
46158;SDS011;31888;44.512;26.104;2023-05-20T09:25:29;24.05;;;11.63;;
46158;SDS011;31888;44.512;26.104;2023-05-20T09:27:54;17.10;;;10.32;;
46158;SDS011;31888;44.512;26.104;2023-05-20T09:30:19;14.88;;;9.40;;
46158;SDS011;31888;44.512;26.104;2023-05-20T09:32:44;17.90;;;10.52;;
46158;SDS011;31888;44.512;26.104;2023-05-20T09:35:16;14.85;;;9.98;;
46158;SDS011;31888;44.512;26.104;2023-05-20T09:37:42;17.55;;;9.85;;
46158;SDS011;31888;44.512;26.104;2023-05-20T09:40:10;16.80;;;9.45;;
46158;SDS011;31888;44.512;26.104;2023-05-20T09:42:37;17.20;;;10.50;;
46158;SDS011;31888;44.512;26.104;2023-05-20T09:45:05;19.90;;;9.63;;
46158;SDS011;31888;44.512;26.104;2023-05-20T09:47:32;14.13;;;9.73;;
46158;SDS011;31888;44.512;26.104;2023-05-20T09:49:57;16.58;;;8.57;;
46158;SDS011;31888;44.512;26.104;2023-05-20T09:52:27;12.60;;;9.63;;
46158;SDS011;31888;44.512;26.104;2023-05-20T09:54:52;18.48;;;9.15;;
46158;SDS011;31888;44.512;26.104;2023-05-20T09:57:19;13.90;;;9.35;;
46158;SDS011;31888;44.512;26.104;2023-05-20T09:59:44;16.27;;;8.80;;
46158;SDS011;31888;44.512;26.104;2023-05-20T10:02:09;21.95;;;10.15;;
46158;SDS011;31888;44.512;26.104;2023-05-20T10:04:35;17.30;;;9.77;;
46158;SDS011;31888;44.512;26.104;2023-05-20T10:07:10;13.85;;;10.13;;
46158;SDS011;31888;44.512;26.104;2023-05-20T10:10:08;18.13;;;10.43;;
46158;SDS011;31888;44.512;26.104;2023-05-20T10:12:46;17.83;;;11.02;;
46158;SDS011;31888;44.512;26.104;2023-05-20T10:15:18;17.15;;;10.68;;
46158;SDS011;31888;44.512;26.104;2023-05-20T10:17:50;18.15;;;10.60;;
46158;SDS011;31888;44.512;26.104;2023-05-20T10:20:21;16.38;;;9.77;;
46158;SDS011;31888;44.512;26.104;2023-05-20T10:22:53;18.50;;;10.25;;
46158;SDS011;31888;44.512;26.104;2023-05-20T10:25:24;18.83;;;10.88;;
46158;SDS011;31888;44.512;26.104;2023-05-20T10:30:14;21.55;;;9.95;;
46158;SDS011;31888;44.512;26.104;2023-05-20T10:32:47;18.73;;;10.73;;
46158;SDS011;31888;44.512;26.104;2023-05-20T10:35:12;16.45;;;9.85;;
46158;SDS011;31888;44.512;26.104;2023-05-20T10:37:43;23.00;;;11.23;;
46158;SDS011;31888;44.512;26.104;2023-05-20T10:40:10;22.65;;;11.75;;
46158;SDS011;31888;44.512;26.104;2023-05-20T10:42:38;22.13;;;11.00;;
46158;SDS011;31888;44.512;26.104;2023-05-20T10:45:03;19.88;;;10.80;;
46158;SDS011;31888;44.512;26.104;2023-05-20T10:47:29;16.75;;;10.57;;
46158;SDS011;31888;44.512;26.104;2023-05-20T10:49:54;21.83;;;11.15;;
46158;SDS011;31888;44.512;26.104;2023-05-20T10:52:19;17.98;;;10.63;;
46158;SDS011;31888;44.512;26.104;2023-05-20T10:54:45;17.90;;;9.98;;
46158;SDS011;31888;44.512;26.104;2023-05-20T10:57:13;19.63;;;9.90;;
46158;SDS011;31888;44.512;26.104;2023-05-20T10:59:39;15.02;;;9.95;;
46158;SDS011;31888;44.512;26.104;2023-05-20T11:02:04;17.33;;;10.05;;
46158;SDS011;31888;44.512;26.104;2023-05-20T11:04:29;18.45;;;10.48;;
46158;SDS011;31888;44.512;26.104;2023-05-20T11:06:55;22.25;;;11.05;;
46158;SDS011;31888;44.512;26.104;2023-05-20T11:09:20;28.75;;;10.65;;
46158;SDS011;31888;44.512;26.104;2023-05-20T11:11:45;18.23;;;11.13;;
46158;SDS011;31888;44.512;26.104;2023-05-20T11:14:10;20.88;;;11.93;;
46158;SDS011;31888;44.512;26.104;2023-05-20T11:16:38;19.40;;;10.98;;
46158;SDS011;31888;44.512;26.104;2023-05-20T11:19:02;16.13;;;9.75;;
46158;SDS011;31888;44.512;26.104;2023-05-20T11:21:32;13.23;;;10.02;;
46158;SDS011;31888;44.512;26.104;2023-05-20T11:23:56;19.55;;;10.98;;
46158;SDS011;31888;44.512;26.104;2023-05-20T11:26:21;17.20;;;9.43;;
46158;SDS011;31888;44.512;26.104;2023-05-20T11:28:45;19.65;;;10.25;;
46158;SDS011;31888;44.512;26.104;2023-05-20T11:31:10;15.07;;;10.20;;
46158;SDS011;31888;44.512;26.104;2023-05-20T11:33:39;15.63;;;10.02;;
46158;SDS011;31888;44.512;26.104;2023-05-20T11:38:47;14.80;;;9.88;;
46158;SDS011;31888;44.512;26.104;2023-05-20T11:41:14;17.40;;;10.18;;
46158;SDS011;31888;44.512;26.104;2023-05-20T11:43:39;20.95;;;9.80;;
46158;SDS011;31888;44.512;26.104;2023-05-20T11:46:04;16.67;;;9.82;;
46158;SDS011;31888;44.512;26.104;2023-05-20T11:48:29;16.42;;;9.73;;
46158;SDS011;31888;44.512;26.104;2023-05-20T11:50:55;21.67;;;9.75;;
46158;SDS011;31888;44.512;26.104;2023-05-20T11:53:23;17.08;;;10.25;;
46158;SDS011;31888;44.512;26.104;2023-05-20T11:55:48;18.73;;;9.25;;
46158;SDS011;31888;44.512;26.104;2023-05-20T11:58:15;14.90;;;8.80;;
46158;SDS011;31888;44.512;26.104;2023-05-20T12:00:41;13.65;;;9.55;;
46158;SDS011;31888;44.512;26.104;2023-05-20T12:03:11;14.77;;;9.80;;
46158;SDS011;31888;44.512;26.104;2023-05-20T12:05:36;16.52;;;8.35;;
46158;SDS011;31888;44.512;26.104;2023-05-20T12:08:02;17.70;;;8.40;;
46158;SDS011;31888;44.512;26.104;2023-05-20T12:10:27;12.27;;;6.93;;
46158;SDS011;31888;44.512;26.104;2023-05-20T12:12:53;13.95;;;7.72;;
46158;SDS011;31888;44.512;26.104;2023-05-20T12:15:17;18.90;;;9.15;;
46158;SDS011;31888;44.512;26.104;2023-05-20T12:17:43;14.25;;;8.75;;
46158;SDS011;31888;44.512;26.104;2023-05-20T12:20:10;15.05;;;7.65;;
46158;SDS011;31888;44.512;26.104;2023-05-20T12:22:36;15.05;;;8.52;;
46158;SDS011;31888;44.512;26.104;2023-05-20T12:25:02;17.45;;;8.60;;
46158;SDS011;31888;44.512;26.104;2023-05-20T12:27:28;14.07;;;8.82;;
46158;SDS011;31888;44.512;26.104;2023-05-20T12:29:52;14.80;;;8.23;;
46158;SDS011;31888;44.512;26.104;2023-05-20T12:32:17;16.75;;;7.80;;
46158;SDS011;31888;44.512;26.104;2023-05-20T12:34:42;16.63;;;8.73;;
46158;SDS011;31888;44.512;26.104;2023-05-20T12:37:07;16.25;;;8.32;;
46158;SDS011;31888;44.512;26.104;2023-05-20T12:39:32;15.27;;;7.90;;
46158;SDS011;31888;44.512;26.104;2023-05-20T12:41:58;13.93;;;8.30;;
46158;SDS011;31888;44.512;26.104;2023-05-20T12:44:23;17.73;;;8.70;;
46158;SDS011;31888;44.512;26.104;2023-05-20T12:46:48;13.48;;;8.95;;
46158;SDS011;31888;44.512;26.104;2023-05-20T12:49:13;17.35;;;7.85;;
46158;SDS011;31888;44.512;26.104;2023-05-20T12:51:38;20.40;;;8.65;;
46158;SDS011;31888;44.512;26.104;2023-05-20T12:54:03;18.70;;;8.10;;
46158;SDS011;31888;44.512;26.104;2023-05-20T12:56:29;28.73;;;9.13;;
46158;SDS011;31888;44.512;26.104;2023-05-20T12:58:55;24.63;;;7.70;;
46158;SDS011;31888;44.512;26.104;2023-05-20T13:01:20;24.23;;;7.00;;
46158;SDS011;31888;44.512;26.104;2023-05-20T13:03:45;15.45;;;6.53;;
46158;SDS011;31888;44.512;26.104;2023-05-20T13:06:14;17.80;;;6.95;;
46158;SDS011;31888;44.512;26.104;2023-05-20T13:08:39;31.80;;;8.63;;
46158;SDS011;31888;44.512;26.104;2023-05-20T13:11:03;20.13;;;6.82;;
46158;SDS011;31888;44.512;26.104;2023-05-20T13:13:28;22.63;;;6.07;;
46158;SDS011;31888;44.512;26.104;2023-05-20T13:15:54;13.55;;;5.80;;
46158;SDS011;31888;44.512;26.104;2023-05-20T13:18:19;13.43;;;5.75;;
46158;SDS011;31888;44.512;26.104;2023-05-20T13:20:44;8.88;;;5.60;;
46158;SDS011;31888;44.512;26.104;2023-05-20T13:23:09;11.95;;;6.20;;
46158;SDS011;31888;44.512;26.104;2023-05-20T13:25:34;13.20;;;6.78;;
46158;SDS011;31888;44.512;26.104;2023-05-20T13:27:58;11.65;;;6.43;;
46158;SDS011;31888;44.512;26.104;2023-05-20T13:30:23;14.30;;;5.90;;
46158;SDS011;31888;44.512;26.104;2023-05-20T13:32:51;9.60;;;6.57;;
46158;SDS011;31888;44.512;26.104;2023-05-20T13:35:15;11.15;;;6.70;;
46158;SDS011;31888;44.512;26.104;2023-05-20T13:37:41;10.75;;;6.35;;
46158;SDS011;31888;44.512;26.104;2023-05-20T13:40:06;9.65;;;6.63;;
46158;SDS011;31888;44.512;26.104;2023-05-20T13:42:32;11.75;;;6.63;;
46158;SDS011;31888;44.512;26.104;2023-05-20T13:44:56;9.98;;;6.10;;
46158;SDS011;31888;44.512;26.104;2023-05-20T13:47:20;10.18;;;6.40;;
46158;SDS011;31888;44.512;26.104;2023-05-20T13:49:46;11.77;;;7.10;;
46158;SDS011;31888;44.512;26.104;2023-05-20T13:52:11;10.48;;;6.13;;
46158;SDS011;31888;44.512;26.104;2023-05-20T13:54:36;15.98;;;6.40;;
46158;SDS011;31888;44.512;26.104;2023-05-20T13:57:01;11.57;;;6.45;;
46158;SDS011;31888;44.512;26.104;2023-05-20T13:59:29;12.23;;;6.47;;
46158;SDS011;31888;44.512;26.104;2023-05-20T14:01:54;8.93;;;6.40;;
46158;SDS011;31888;44.512;26.104;2023-05-20T14:04:19;11.25;;;7.07;;
46158;SDS011;31888;44.512;26.104;2023-05-20T14:06:45;8.25;;;6.15;;
46158;SDS011;31888;44.512;26.104;2023-05-20T14:09:09;11.20;;;7.13;;
46158;SDS011;31888;44.512;26.104;2023-05-20T14:11:34;13.15;;;6.63;;
46158;SDS011;31888;44.512;26.104;2023-05-20T14:14:00;9.85;;;7.05;;